^^
Station Historical Data
Daily Summary for October 31, 2017 Units:  Both    English   Metric
« Previous Day
Next Day »
Daily Weekly Monthly Yearly Custom
  High: Low: Average:
Temperature: TemperatureF °F /  -17.8 °C 57.7 °F /  14.3 °C 65.2 °F /  18.4 °C
Dew Point: DewpointF °F /  -17.8 °C 50.5 °F /  10.3 °C 54.7 °F /  12.6 °C
Humidity: Humidity% 37% 71%
Wind Speed: WindSpeedMPHmph /  0km/h - 2.1mph /  3.4km/h
Wind Gust: WindSpeedGustMPHmph /  0km/h - -
Wind- - ESE
Pressure: PressureIn in /  0 hPa 29.95 in /  1014.1 hPa -
Precipitation: 1.06 in /  26.92 mm    
Historical Graphs
 
 
Tabular Data for October 31, 2017
Time Temperature Dew Point Pressure Wind Wind Speed Wind Gust Humidity Rainfall Rate (Hourly) solar Conditions
TemperatureF °F /  -17.8 °C DewpointF °F /  -17.8 °C PressureInin /  0hPa Calm     Humidity% HourlyPrecipInin /  0mm SolarRadiationWatts/m^2 W/m2 Conditions
00:03 63.1 °F /  17.3 °C 55.0 °F /  12.8 °C 30.36in /  1028hPa ESE 2.0mph /  3.2km/h 4.0mph /  6.4km/h 75% 0.00in /  0mm 0.0 W/m2
00:09 63.0 °F /  17.2 °C 55.2 °F /  12.9 °C 30.36in /  1028hPa Calm   1.0mph /  1.6km/h 76% 0.00in /  0mm 0.0 W/m2
00:14 63.0 °F /  17.2 °C 55.2 °F /  12.9 °C 30.36in /  1028hPa SE 2.0mph /  3.2km/h 5.0mph /  8km/h 76% 0.00in /  0mm 0.0 W/m2
00:19 62.8 °F /  17.1 °C 55.0 °F /  12.8 °C 30.36in /  1028hPa Calm   2.0mph /  3.2km/h 76% 0.00in /  0mm 0.0 W/m2
00:24 62.8 °F /  17.1 °C 55.0 °F /  12.8 °C 30.36in /  1028hPa Calm     76% 0.00in /  0mm 0.0 W/m2
00:29 62.6 °F /  17 °C 54.9 °F /  12.7 °C 30.35in /  1027.7hPa Calm   2.0mph /  3.2km/h 76% 0.00in /  0mm 0.0 W/m2
00:34 62.4 °F /  16.9 °C 55.0 °F /  12.8 °C 30.36in /  1028hPa Calm   1.0mph /  1.6km/h 77% 0.00in /  0mm 0.0 W/m2
00:39 62.4 °F /  16.9 °C 55.0 °F /  12.8 °C 30.35in /  1027.7hPa East 0.9mph /  1.4km/h 2.0mph /  3.2km/h 77% 0.00in /  0mm 0.0 W/m2
00:44 62.2 °F /  16.8 °C 55.2 °F /  12.9 °C 30.35in /  1027.7hPa Calm   1.0mph /  1.6km/h 78% 0.00in /  0mm 0.0 W/m2
00:49 62.2 °F /  16.8 °C 55.2 °F /  12.9 °C 30.35in /  1027.7hPa Calm   1.0mph /  1.6km/h 78% 0.00in /  0mm 0.0 W/m2
00:54 62.1 °F /  16.7 °C 55.0 °F /  12.8 °C 30.35in /  1027.7hPa NE 0.9mph /  1.4km/h 2.0mph /  3.2km/h 78% 0.00in /  0mm 0.0 W/m2
00:59 62.1 °F /  16.7 °C 55.0 °F /  12.8 °C 30.35in /  1027.7hPa Calm   1.0mph /  1.6km/h 78% 0.00in /  0mm 0.0 W/m2
01:05 62.1 °F /  16.7 °C 55.0 °F /  12.8 °C 30.35in /  1027.7hPa Calm     78% 0.00in /  0mm 0.0 W/m2
01:10 61.9 °F /  16.6 °C 55.2 °F /  12.9 °C 30.35in /  1027.7hPa Calm     79% 0.00in /  0mm 0.0 W/m2
01:15 61.7 °F /  16.5 °C 55.0 °F /  12.8 °C 30.34in /  1027.3hPa Calm   1.0mph /  1.6km/h 79% 0.00in /  0mm 0.0 W/m2
01:25 61.5 °F /  16.4 °C 54.9 °F /  12.7 °C 30.34in /  1027.3hPa Calm   1.0mph /  1.6km/h 79% 0.00in /  0mm 0.0 W/m2
01:30 61.3 °F /  16.3 °C 54.9 °F /  12.7 °C 30.34in /  1027.3hPa Calm   1.0mph /  1.6km/h 79% 0.00in /  0mm 0.0 W/m2
01:35 61.3 °F /  16.3 °C 55.0 °F /  12.8 °C 30.34in /  1027.3hPa Calm   2.0mph /  3.2km/h 80% 0.00in /  0mm 0.0 W/m2
01:40 61.2 °F /  16.2 °C 54.9 °F /  12.7 °C 30.34in /  1027.3hPa Calm   1.0mph /  1.6km/h 80% 0.00in /  0mm 0.0 W/m2
01:46 61.2 °F /  16.2 °C 54.9 °F /  12.7 °C 30.34in /  1027.3hPa Calm   3.0mph /  4.8km/h 80% 0.00in /  0mm 0.0 W/m2
01:51 61.0 °F /  16.1 °C 55.0 °F /  12.8 °C 30.34in /  1027.3hPa Calm   1.0mph /  1.6km/h 81% 0.00in /  0mm 0.0 W/m2
01:56 60.8 °F /  16 °C 54.9 °F /  12.7 °C 30.33in /  1027hPa Calm     81% 0.00in /  0mm 0.0 W/m2
02:01 60.6 °F /  15.9 °C 54.7 °F /  12.6 °C 30.33in /  1027hPa Calm   2.0mph /  3.2km/h 81% 0.00in /  0mm 0.0 W/m2
02:06 60.6 °F /  15.9 °C 54.7 °F /  12.6 °C 30.33in /  1027hPa Calm   1.0mph /  1.6km/h 81% 0.00in /  0mm 0.0 W/m2
02:11 60.6 °F /  15.9 °C 54.7 °F /  12.6 °C 30.33in /  1027hPa Calm   2.0mph /  3.2km/h 81% 0.00in /  0mm 0.0 W/m2
02:16 60.6 °F /  15.9 °C 54.7 °F /  12.6 °C 30.33in /  1027hPa Calm   1.0mph /  1.6km/h 81% 0.00in /  0mm 0.0 W/m2
02:21 60.4 °F /  15.8 °C 54.9 °F /  12.7 °C 30.33in /  1027hPa Calm   1.0mph /  1.6km/h 82% 0.00in /  0mm 0.0 W/m2
02:27 60.4 °F /  15.8 °C 54.9 °F /  12.7 °C 30.33in /  1027hPa Calm   1.0mph /  1.6km/h 82% 0.00in /  0mm 0.0 W/m2
02:32 60.4 °F /  15.8 °C 54.9 °F /  12.7 °C 30.33in /  1027hPa Calm   1.0mph /  1.6km/h 82% 0.00in /  0mm 0.0 W/m2
02:37 60.3 °F /  15.7 °C 54.7 °F /  12.6 °C 30.33in /  1027hPa Calm     82% 0.00in /  0mm 0.0 W/m2
02:42 60.3 °F /  15.7 °C 54.7 °F /  12.6 °C 30.34in /  1027.3hPa Calm   2.0mph /  3.2km/h 82% 0.00in /  0mm 0.0 W/m2
02:47 60.3 °F /  15.7 °C 54.7 °F /  12.6 °C 30.34in /  1027.3hPa Calm   1.0mph /  1.6km/h 82% 0.00in /  0mm 0.0 W/m2
02:52 60.3 °F /  15.7 °C 54.7 °F /  12.6 °C 30.33in /  1027hPa Calm   1.0mph /  1.6km/h 82% 0.00in /  0mm 0.0 W/m2
02:57 60.3 °F /  15.7 °C 54.7 °F /  12.6 °C 30.33in /  1027hPa Calm   1.0mph /  1.6km/h 82% 0.00in /  0mm 0.0 W/m2
03:03 60.1 °F /  15.6 °C 54.5 °F /  12.5 °C 30.33in /  1027hPa NNE 2.0mph /  3.2km/h 4.0mph /  6.4km/h 82% 0.00in /  0mm 0.0 W/m2
03:08 60.1 °F /  15.6 °C 54.5 °F /  12.5 °C 30.33in /  1027hPa Calm   3.0mph /  4.8km/h 82% 0.00in /  0mm 0.0 W/m2
03:13 59.9 °F /  15.5 °C 54.3 °F /  12.4 °C 30.33in /  1027hPa Calm   3.0mph /  4.8km/h 82% 0.00in /  0mm 0.0 W/m2
03:19 59.7 °F /  15.4 °C 54.5 °F /  12.5 °C 30.33in /  1027hPa ENE 0.9mph /  1.4km/h 3.0mph /  4.8km/h 83% 0.00in /  0mm 0.0 W/m2
03:24 59.5 °F /  15.3 °C 54.3 °F /  12.4 °C 30.32in /  1026.6hPa Calm   2.0mph /  3.2km/h 83% 0.00in /  0mm 0.0 W/m2
03:35 59.4 °F /  15.2 °C 54.1 °F /  12.3 °C 30.32in /  1026.6hPa Calm   2.0mph /  3.2km/h 83% 0.00in /  0mm 0.0 W/m2
03:41 59.4 °F /  15.2 °C 54.1 °F /  12.3 °C 30.32in /  1026.6hPa NE 2.0mph /  3.2km/h 3.0mph /  4.8km/h 83% 0.00in /  0mm 0.0 W/m2
03:46 59.4 °F /  15.2 °C 54.1 °F /  12.3 °C 30.32in /  1026.6hPa ENE 0.9mph /  1.4km/h 2.0mph /  3.2km/h 83% 0.00in /  0mm 0.0 W/m2
03:52 59.4 °F /  15.2 °C 54.1 °F /  12.3 °C 30.33in /  1027hPa Calm   3.0mph /  4.8km/h 83% 0.00in /  0mm 0.0 W/m2
03:57 59.4 °F /  15.2 °C 54.1 °F /  12.3 °C 30.32in /  1026.6hPa Calm     83% 0.00in /  0mm 0.0 W/m2
04:02 59.4 °F /  15.2 °C 54.1 °F /  12.3 °C 30.32in /  1026.6hPa Calm   1.0mph /  1.6km/h 83% 0.00in /  0mm 0.0 W/m2
04:07 59.2 °F /  15.1 °C 54.0 °F /  12.2 °C 30.32in /  1026.6hPa Calm     83% 0.00in /  0mm 0.0 W/m2
04:12 59.2 °F /  15.1 °C 54.0 °F /  12.2 °C 30.32in /  1026.6hPa Calm     83% 0.00in /  0mm 0.0 W/m2
04:17 59.2 °F /  15.1 °C 54.3 °F /  12.4 °C 30.33in /  1027hPa Calm     84% 0.00in /  0mm 0.0 W/m2
04:22 59.0 °F /  15 °C 54.1 °F /  12.3 °C 30.33in /  1027hPa Calm     84% 0.00in /  0mm 0.0 W/m2
04:27 58.8 °F /  14.9 °C 54.0 °F /  12.2 °C 30.32in /  1026.6hPa Calm     84% 0.00in /  0mm 0.0 W/m2
04:33 58.8 °F /  14.9 °C 54.0 °F /  12.2 °C 30.32in /  1026.6hPa Calm   1.0mph /  1.6km/h 84% 0.00in /  0mm 0.0 W/m2
04:38 58.8 °F /  14.9 °C 54.0 °F /  12.2 °C 30.33in /  1027hPa Calm     84% 0.00in /  0mm 0.0 W/m2
04:43 58.6 °F /  14.8 °C 53.8 °F /  12.1 °C 30.33in /  1027hPa Calm     84% 0.00in /  0mm 0.0 W/m2
04:48 58.6 °F /  14.8 °C 53.8 °F /  12.1 °C 30.33in /  1027hPa Calm     84% 0.00in /  0mm 0.0 W/m2
04:53 58.6 °F /  14.8 °C 54.1 °F /  12.3 °C 30.33in /  1027hPa Calm     85% 0.00in /  0mm 0.0 W/m2
04:58 58.5 °F /  14.7 °C 54.0 °F /  12.2 °C 30.33in /  1027hPa Calm   1.0mph /  1.6km/h 85% 0.00in /  0mm 0.0 W/m2
05:03 58.5 °F /  14.7 °C 54.0 °F /  12.2 °C 30.33in /  1027hPa Calm     85% 0.00in /  0mm 0.0 W/m2
05:11 58.5 °F /  14.7 °C 54.0 °F /  12.2 °C 30.33in /  1027hPa Calm   1.0mph /  1.6km/h 85% 0.00in /  0mm 0.0 W/m2
05:16 58.3 °F /  14.6 °C 53.8 °F /  12.1 °C 30.33in /  1027hPa Calm     85% 0.00in /  0mm 0.0 W/m2
05:23 58.5 °F /  14.7 °C 54.0 °F /  12.2 °C 30.33in /  1027hPa Calm   1.0mph /  1.6km/h 85% 0.00in /  0mm 0.0 W/m2
05:26 58.3 °F /  14.6 °C 53.8 °F /  12.1 °C 30.33in /  1027hPa East 0.9mph /  1.4km/h 1.0mph /  1.6km/h 85% 0.00in /  0mm 0.0 W/m2
05:28 58.3 °F /  14.6 °C 53.8 °F /  12.1 °C 29.95in /  1014.1hPa Calm   1.0mph /  1.6km/h 85% 0.00in /  0mm 0.0 W/m2
05:34 58.3 °F /  14.6 °C 53.8 °F /  12.1 °C 30.33in /  1027hPa Calm     85% 0.00in /  0mm 0.0 W/m2
05:36 58.3 °F /  14.6 °C 53.8 °F /  12.1 °C 30.34in /  1027.3hPa Calm     85% 0.00in /  0mm 0.0 W/m2
05:41 58.3 °F /  14.6 °C 53.8 °F /  12.1 °C 30.34in /  1027.3hPa Calm     85% 0.00in /  0mm 0.0 W/m2
05:47 58.1 °F /  14.5 °C 53.6 °F /  12 °C 30.34in /  1027.3hPa Calm     85% 0.00in /  0mm 0.0 W/m2
05:52 57.9 °F /  14.4 °C 53.4 °F /  11.9 °C 30.34in /  1027.3hPa Calm   1.0mph /  1.6km/h 85% 0.00in /  0mm 0.0 W/m2
05:57 57.9 °F /  14.4 °C 53.8 °F /  12.1 °C 30.34in /  1027.3hPa Calm     86% 0.00in /  0mm 0.0 W/m2
06:00 57.9 °F /  14.4 °C 53.8 °F /  12.1 °C 30.34in /  1027.3hPa Calm     86% 0.00in /  0mm 0.0 W/m2
06:05 57.7 °F /  14.3 °C 53.6 °F /  12 °C 30.34in /  1027.3hPa Calm     86% 0.00in /  0mm 0.0 W/m2
06:10 57.7 °F /  14.3 °C 53.6 °F /  12 °C 30.34in /  1027.3hPa Calm   2.0mph /  3.2km/h 86% 0.00in /  0mm 0.0 W/m2
06:16 57.7 °F /  14.3 °C 53.6 °F /  12 °C 30.34in /  1027.3hPa Calm   1.0mph /  1.6km/h 86% 0.00in /  0mm 7.0 W/m2
06:21 57.7 °F /  14.3 °C 53.6 °F /  12 °C 30.35in /  1027.7hPa Calm   2.0mph /  3.2km/h 86% 0.00in /  0mm 9.0 W/m2
06:27 57.7 °F /  14.3 °C 53.6 °F /  12 °C 30.35in /  1027.7hPa Calm     86% 0.00in /  0mm 12.0 W/m2
06:32 57.7 °F /  14.3 °C 53.6 °F /  12 °C 30.35in /  1027.7hPa Calm   2.0mph /  3.2km/h 86% 0.00in /  0mm 14.0 W/m2
06:37 57.9 °F /  14.4 °C 54.1 °F /  12.3 °C 30.35in /  1027.7hPa Calm   1.0mph /  1.6km/h 87% 0.00in /  0mm 18.0 W/m2
06:43 58.1 °F /  14.5 °C 54.0 °F /  12.2 °C 30.35in /  1027.7hPa Calm   1.0mph /  1.6km/h 86% 0.00in /  0mm 19.0 W/m2
06:48 58.3 °F /  14.6 °C 54.1 °F /  12.3 °C 30.35in /  1027.7hPa East 0.9mph /  1.4km/h 3.0mph /  4.8km/h 86% 0.00in /  0mm 21.0 W/m2
06:53 58.3 °F /  14.6 °C 54.1 °F /  12.3 °C 30.36in /  1028hPa ENE 2.0mph /  3.2km/h 3.0mph /  4.8km/h 86% 0.00in /  0mm 23.0 W/m2
06:58 58.5 °F /  14.7 °C 54.3 °F /  12.4 °C 30.36in /  1028hPa Calm   2.0mph /  3.2km/h 86% 0.00in /  0mm 25.0 W/m2
07:03 58.6 °F /  14.8 °C 54.5 °F /  12.5 °C 30.36in /  1028hPa Calm   1.0mph /  1.6km/h 86% 0.00in /  0mm 26.0 W/m2
07:09 59.2 °F /  15.1 °C 54.7 °F /  12.6 °C 30.36in /  1028hPa Calm   1.0mph /  1.6km/h 85% 0.00in /  0mm 28.0 W/m2
07:14 59.4 °F /  15.2 °C 54.5 °F /  12.5 °C 30.36in /  1028hPa Calm   2.0mph /  3.2km/h 84% 0.00in /  0mm 30.0 W/m2
07:19 59.5 °F /  15.3 °C 54.7 °F /  12.6 °C 30.37in /  1028.3hPa Calm   2.0mph /  3.2km/h 84% 0.00in /  0mm 33.0 W/m2
07:25 60.1 °F /  15.6 °C 55.2 °F /  12.9 °C 30.37in /  1028.3hPa Calm   2.0mph /  3.2km/h 84% 0.00in /  0mm 35.0 W/m2
07:30 60.6 °F /  15.9 °C 55.0 °F /  12.8 °C 30.37in /  1028.3hPa Calm   3.0mph /  4.8km/h 82% 0.00in /  0mm 35.0 W/m2
07:35 61.2 °F /  16.2 °C 55.6 °F /  13.1 °C 30.37in /  1028.3hPa Calm   2.0mph /  3.2km/h 82% 0.00in /  0mm 37.0 W/m2
07:40 61.7 °F /  16.5 °C 55.4 °F /  13 °C 30.37in /  1028.3hPa ENE 0.9mph /  1.4km/h 2.0mph /  3.2km/h 80% 0.00in /  0mm 39.0 W/m2
07:45 62.4 °F /  16.9 °C 55.4 °F /  13 °C 30.37in /  1028.3hPa ENE 0.9mph /  1.4km/h 5.0mph /  8km/h 78% 0.00in /  0mm 40.0 W/m2
07:50 63.1 °F /  17.3 °C 55.8 °F /  13.2 °C 30.37in /  1028.3hPa NE 0.9mph /  1.4km/h 4.0mph /  6.4km/h 77% 0.00in /  0mm 44.0 W/m2
07:55 63.7 °F /  17.6 °C 55.9 °F /  13.3 °C 30.37in /  1028.3hPa Calm   3.0mph /  4.8km/h 76% 0.00in /  0mm 49.0 W/m2
08:00 64.2 °F /  17.9 °C 55.8 °F /  13.2 °C 30.37in /  1028.3hPa Calm   3.0mph /  4.8km/h 74% 0.00in /  0mm 53.0 W/m2
08:06 64.6 °F /  18.1 °C 55.8 °F /  13.2 °C 30.37in /  1028.3hPa Calm   1.0mph /  1.6km/h 73% 0.00in /  0mm 311.0 W/m2
08:11 64.9 °F /  18.3 °C 55.8 °F /  13.2 °C 30.37in /  1028.3hPa Calm   1.0mph /  1.6km/h 72% 0.00in /  0mm 424.0 W/m2
08:16 65.3 °F /  18.5 °C 56.1 °F /  13.4 °C 30.37in /  1028.3hPa Calm   2.0mph /  3.2km/h 72% 0.00in /  0mm 448.0 W/m2
08:22 66.0 °F /  18.9 °C 55.9 °F /  13.3 °C 30.36in /  1028hPa ESE 4.0mph /  6.4km/h 6.0mph /  9.7km/h 70% 0.00in /  0mm 471.0 W/m2
08:27 66.7 °F /  19.3 °C 55.8 °F /  13.2 °C 30.36in /  1028hPa NE 2.9mph /  4.7km/h 6.0mph /  9.7km/h 68% 0.00in /  0mm 490.0 W/m2
08:32 67.8 °F /  19.9 °C 56.1 °F /  13.4 °C 30.36in /  1028hPa Calm   3.0mph /  4.8km/h 66% 0.00in /  0mm 506.0 W/m2
08:38 69.1 °F /  20.6 °C 56.5 °F /  13.6 °C 30.36in /  1028hPa NE 4.0mph /  6.4km/h 5.0mph /  8km/h 64% 0.00in /  0mm 526.0 W/m2
08:43 70.0 °F /  21.1 °C 56.3 °F /  13.5 °C 30.36in /  1028hPa East 2.0mph /  3.2km/h 5.0mph /  8km/h 62% 0.00in /  0mm 547.0 W/m2
08:48 70.7 °F /  21.5 °C 55.6 °F /  13.1 °C 30.36in /  1028hPa North 6.0mph /  9.7km/h 8.0mph /  12.9km/h 59% 0.00in /  0mm 589.0 W/m2
08:53 71.4 °F /  21.9 °C 55.4 °F /  13 °C 30.36in /  1028hPa NE 8.1mph /  13km/h 12.0mph /  19.3km/h 57% 0.00in /  0mm 645.0 W/m2
08:58 72.0 °F /  22.2 °C 54.9 °F /  12.7 °C 30.35in /  1027.7hPa ENE 2.9mph /  4.7km/h 9.0mph /  14.5km/h 55% 0.00in /  0mm 640.0 W/m2
09:04 72.7 °F /  22.6 °C 54.5 °F /  12.5 °C 30.35in /  1027.7hPa NNE 6.0mph /  9.7km/h 11.0mph /  17.7km/h 53% 0.00in /  0mm 673.0 W/m2
09:09 73.2 °F /  22.9 °C 55.0 °F /  12.8 °C 30.35in /  1027.7hPa NE 6.0mph /  9.7km/h 8.0mph /  12.9km/h 53% 0.00in /  0mm 722.0 W/m2
09:14 73.9 °F /  23.3 °C 54.1 °F /  12.3 °C 30.35in /  1027.7hPa NNW 4.9mph /  7.9km/h 10.0mph /  16.1km/h 50% 0.00in /  0mm 780.0 W/m2
09:20 73.9 °F /  23.3 °C 53.6 °F /  12 °C 30.35in /  1027.7hPa ENE 2.9mph /  4.7km/h 9.0mph /  14.5km/h 49% 0.00in /  0mm 798.0 W/m2
09:25 73.9 °F /  23.3 °C 53.6 °F /  12 °C 30.35in /  1027.7hPa North 4.9mph /  7.9km/h 11.0mph /  17.7km/h 49% 0.00in /  0mm 165.0 W/m2
09:30 73.4 °F /  23 °C 53.6 °F /  12 °C 30.35in /  1027.7hPa ENE 6.9mph /  11.1km/h 13.0mph /  20.9km/h 50% 0.00in /  0mm 209.0 W/m2
09:35 72.9 °F /  22.7 °C 53.6 °F /  12 °C 30.35in /  1027.7hPa ENE 4.0mph /  6.4km/h 7.0mph /  11.3km/h 51% 0.00in /  0mm 220.0 W/m2
09:40 72.7 °F /  22.6 °C 53.4 °F /  11.9 °C 30.35in /  1027.7hPa NE 4.9mph /  7.9km/h 9.0mph /  14.5km/h 51% 0.00in /  0mm 304.0 W/m2
09:45 72.7 °F /  22.6 °C 54.0 °F /  12.2 °C 30.35in /  1027.7hPa East 2.9mph /  4.7km/h 8.0mph /  12.9km/h 52% 0.00in /  0mm 279.0 W/m2
09:50 73.6 °F /  23.1 °C 54.3 °F /  12.4 °C 30.35in /  1027.7hPa NE 6.0mph /  9.7km/h 10.0mph /  16.1km/h 51% 0.00in /  0mm 868.0 W/m2
09:55 74.3 °F /  23.5 °C 54.5 °F /  12.5 °C 30.35in /  1027.7hPa NNW 4.0mph /  6.4km/h 11.0mph /  17.7km/h 50% 0.00in /  0mm 926.0 W/m2
10:00 74.7 °F /  23.7 °C 54.3 °F /  12.4 °C 30.35in /  1027.7hPa NNE 6.0mph /  9.7km/h 10.0mph /  16.1km/h 49% 0.00in /  0mm 199.0 W/m2
10:06 73.9 °F /  23.3 °C 54.1 °F /  12.3 °C 30.34in /  1027.3hPa NE 8.1mph /  13km/h 10.0mph /  16.1km/h 50% 0.00in /  0mm 220.0 W/m2
10:11 73.9 °F /  23.3 °C 54.1 °F /  12.3 °C 30.34in /  1027.3hPa NNE 2.9mph /  4.7km/h 8.0mph /  12.9km/h 50% 0.00in /  0mm 206.0 W/m2
10:17 73.8 °F /  23.2 °C 54.0 °F /  12.2 °C 30.34in /  1027.3hPa NNE 2.0mph /  3.2km/h 10.0mph /  16.1km/h 50% 0.00in /  0mm 185.0 W/m2
10:22 73.2 °F /  22.9 °C 53.4 °F /  11.9 °C 30.33in /  1027hPa NNE 4.0mph /  6.4km/h 6.0mph /  9.7km/h 50% 0.00in /  0mm 155.0 W/m2
10:27 73.2 °F /  22.9 °C 54.0 °F /  12.2 °C 30.33in /  1027hPa NNE 4.0mph /  6.4km/h 9.0mph /  14.5km/h 51% 0.00in /  0mm 1041.0 W/m2
10:32 74.5 °F /  23.6 °C 54.1 °F /  12.3 °C 30.33in /  1027hPa NE 4.0mph /  6.4km/h 8.0mph /  12.9km/h 49% 0.00in /  0mm 1063.0 W/m2
10:43 76.6 °F /  24.8 °C 54.3 °F /  12.4 °C 30.32in /  1026.6hPa NNW 2.0mph /  3.2km/h 7.0mph /  11.3km/h 46% 0.00in /  0mm 250.0 W/m2
10:49 76.8 °F /  24.9 °C 53.8 °F /  12.1 °C 30.32in /  1026.6hPa NNW 6.9mph /  11.1km/h 12.0mph /  19.3km/h 45% 0.00in /  0mm 1079.0 W/m2
10:54 76.8 °F /  24.9 °C 53.2 °F /  11.8 °C 30.32in /  1026.6hPa North 2.9mph /  4.7km/h 8.0mph /  12.9km/h 44% 0.00in /  0mm 272.0 W/m2
10:59 76.8 °F /  24.9 °C 53.8 °F /  12.1 °C 30.32in /  1026.6hPa NNW 4.9mph /  7.9km/h 10.0mph /  16.1km/h 45% 0.00in /  0mm 1097.0 W/m2
11:04 77.4 °F /  25.2 °C 53.8 °F /  12.1 °C 30.32in /  1026.6hPa NE 6.0mph /  9.7km/h 9.0mph /  14.5km/h 44% 0.00in /  0mm 1165.0 W/m2
11:10 77.2 °F /  25.1 °C 53.6 °F /  12 °C 30.31in /  1026.3hPa North 2.9mph /  4.7km/h 8.0mph /  12.9km/h 44% 0.00in /  0mm 179.0 W/m2
11:15 76.6 °F /  24.8 °C 53.1 °F /  11.7 °C 30.31in /  1026.3hPa NNE 6.0mph /  9.7km/h 11.0mph /  17.7km/h 44% 0.00in /  0mm 234.0 W/m2
11:20 76.5 °F /  24.7 °C 52.9 °F /  11.6 °C 30.31in /  1026.3hPa NE 4.0mph /  6.4km/h 8.0mph /  12.9km/h 44% 0.00in /  0mm 345.0 W/m2
11:25 76.5 °F /  24.7 °C 52.3 °F /  11.3 °C 30.31in /  1026.3hPa NW 6.0mph /  9.7km/h 8.0mph /  12.9km/h 43% 0.00in /  0mm 199.0 W/m2
11:30 76.3 °F /  24.6 °C 52.7 °F /  11.5 °C 30.31in /  1026.3hPa North 6.9mph /  11.1km/h 10.0mph /  16.1km/h 44% 0.00in /  0mm 271.0 W/m2
11:36 76.3 °F /  24.6 °C 52.2 °F /  11.2 °C 30.30in /  1026hPa NNE 4.9mph /  7.9km/h 8.0mph /  12.9km/h 43% 0.00in /  0mm 287.0 W/m2
11:41 77.0 °F /  25 °C 52.2 °F /  11.2 °C 30.30in /  1026hPa Calm   8.0mph /  12.9km/h 42% 0.00in /  0mm 1243.0 W/m2
11:51 77.5 °F /  25.3 °C 52.0 °F /  11.1 °C 30.30in /  1026hPa NNE 0.9mph /  1.4km/h 7.0mph /  11.3km/h 41% 0.00in /  0mm 292.0 W/m2
11:56 77.5 °F /  25.3 °C 51.3 °F /  10.7 °C 30.30in /  1026hPa NNW 2.0mph /  3.2km/h 5.0mph /  8km/h 40% 0.00in /  0mm 165.0 W/m2
12:06 77.2 °F /  25.1 °C 52.3 °F /  11.3 °C 30.29in /  1025.6hPa NNW 2.9mph /  4.7km/h 5.0mph /  8km/h 42% 0.00in /  0mm 167.0 W/m2
12:12 76.8 °F /  24.9 °C 52.7 °F /  11.5 °C 30.29in /  1025.6hPa Calm   7.0mph /  11.3km/h 43% 0.00in /  0mm 239.0 W/m2
12:17 77.2 °F /  25.1 °C 52.9 °F /  11.6 °C 30.28in /  1025.3hPa NNW 2.9mph /  4.7km/h 3.0mph /  4.8km/h 43% 0.00in /  0mm 213.0 W/m2
12:22 77.2 °F /  25.1 °C 51.1 °F /  10.6 °C 30.28in /  1025.3hPa NNW 2.0mph /  3.2km/h 6.0mph /  9.7km/h 40% 0.00in /  0mm 250.0 W/m2
12:27 77.4 °F /  25.2 °C 51.1 °F /  10.6 °C 30.28in /  1025.3hPa NNE 2.9mph /  4.7km/h 8.0mph /  12.9km/h 40% 0.00in /  0mm 253.0 W/m2
12:32 77.7 °F /  25.4 °C 51.4 °F /  10.8 °C 30.28in /  1025.3hPa North 2.0mph /  3.2km/h 8.0mph /  12.9km/h 40% 0.00in /  0mm 229.0 W/m2
12:37 78.1 °F /  25.6 °C 52.5 °F /  11.4 °C 30.28in /  1025.3hPa NNW 4.9mph /  7.9km/h 6.0mph /  9.7km/h 41% 0.00in /  0mm 301.0 W/m2
12:42 78.4 °F /  25.8 °C 52.2 °F /  11.2 °C 30.27in /  1024.9hPa NNW 4.0mph /  6.4km/h 9.0mph /  14.5km/h 40% 0.00in /  0mm 301.0 W/m2
12:49 79.3 °F /  26.3 °C 50.7 °F /  10.4 °C 30.27in /  1024.9hPa SSE 0.9mph /  1.4km/h 3.0mph /  4.8km/h 37% 0.00in /  0mm 258.0 W/m2
12:54 79.7 °F /  26.5 °C 51.1 °F /  10.6 °C 30.27in /  1024.9hPa Calm   9.0mph /  14.5km/h 37% 0.00in /  0mm 348.0 W/m2
12:59 79.5 °F /  26.4 °C 50.9 °F /  10.5 °C 30.27in /  1024.9hPa NW 2.9mph /  4.7km/h 8.0mph /  12.9km/h 37% 0.00in /  0mm 236.0 W/m2
13:04 79.3 °F /  26.3 °C 50.7 °F /  10.4 °C 30.27in /  1024.9hPa NE 2.0mph /  3.2km/h 7.0mph /  11.3km/h 37% 0.00in /  0mm 197.0 W/m2
13:10 79.2 °F /  26.2 °C 50.7 °F /  10.4 °C 30.27in /  1024.9hPa NNW 8.1mph /  13km/h 8.1mph /  13km/h 37% 0.00in /  0mm 243.0 W/m2
13:16 79.0 °F /  26.1 °C 51.3 °F /  10.7 °C 30.26in /  1024.6hPa NNW 2.9mph /  4.7km/h 9.0mph /  14.5km/h 38% 0.00in /  0mm 304.0 W/m2
13:21 79.2 °F /  26.2 °C 51.4 °F /  10.8 °C 30.26in /  1024.6hPa ESE 0.9mph /  1.4km/h 7.0mph /  11.3km/h 38% 0.00in /  0mm 248.0 W/m2
13:26 79.2 °F /  26.2 °C 51.4 °F /  10.8 °C 30.26in /  1024.6hPa North 2.9mph /  4.7km/h 7.0mph /  11.3km/h 38% 0.00in /  0mm 241.0 W/m2
13:32 79.0 °F /  26.1 °C 50.5 °F /  10.3 °C 30.26in /  1024.6hPa ENE 2.9mph /  4.7km/h 5.0mph /  8km/h 37% 0.00in /  0mm 202.0 W/m2
13:37 79.0 °F /  26.1 °C 51.3 °F /  10.7 °C 30.26in /  1024.6hPa NNW 0.9mph /  1.4km/h 5.0mph /  8km/h 38% 0.00in /  0mm 232.0 W/m2
13:42 79.2 °F /  26.2 °C 50.7 °F /  10.4 °C 30.25in /  1024.3hPa North 2.9mph /  4.7km/h 10.0mph /  16.1km/h 37% 0.00in /  0mm 338.0 W/m2
13:47 79.5 °F /  26.4 °C 50.9 °F /  10.5 °C 30.25in /  1024.3hPa NW 2.9mph /  4.7km/h 11.0mph /  17.7km/h 37% 0.00in /  0mm 345.0 W/m2
13:52 79.9 °F /  26.6 °C 51.3 °F /  10.7 °C 30.25in /  1024.3hPa NNW 4.0mph /  6.4km/h 6.0mph /  9.7km/h 37% 0.00in /  0mm 424.0 W/m2
13:58 80.1 °F /  26.7 °C 51.4 °F /  10.8 °C 30.25in /  1024.3hPa Calm   6.0mph /  9.7km/h 37% 0.00in /  0mm 258.0 W/m2
14:03 80.1 °F /  26.7 °C 52.2 °F /  11.2 °C 30.24in /  1023.9hPa NNE 4.0mph /  6.4km/h 12.0mph /  19.3km/h 38% 0.00in /  0mm 251.0 W/m2
14:08 79.5 °F /  26.4 °C 53.8 °F /  12.1 °C 30.24in /  1023.9hPa WNW 2.0mph /  3.2km/h 7.0mph /  11.3km/h 41% 0.00in /  0mm 241.0 W/m2
14:13 79.0 °F /  26.1 °C 52.5 °F /  11.4 °C 30.24in /  1023.9hPa WNW 0.9mph /  1.4km/h 4.0mph /  6.4km/h 40% 0.00in /  0mm 156.0 W/m2
14:18 78.4 °F /  25.8 °C 54.1 °F /  12.3 °C 30.24in /  1023.9hPa ENE 6.9mph /  11.1km/h 11.0mph /  17.7km/h 43% 0.00in /  0mm 165.0 W/m2
14:23 77.4 °F /  25.2 °C 58.3 °F /  14.6 °C 30.24in /  1023.9hPa East 4.0mph /  6.4km/h 7.0mph /  11.3km/h 52% 0.00in /  0mm 218.0 W/m2
14:28 76.1 °F /  24.5 °C 57.2 °F /  14 °C 30.24in /  1023.9hPa SSE 0.9mph /  1.4km/h 10.0mph /  16.1km/h 52% 0.00in /  0mm 264.0 W/m2
14:33 75.4 °F /  24.1 °C 56.5 °F /  13.6 °C 30.24in /  1023.9hPa Calm   3.0mph /  4.8km/h 52% 0.00in /  0mm 329.0 W/m2
14:39 75.2 °F /  24 °C 56.3 °F /  13.5 °C 30.23in /  1023.6hPa Calm   2.0mph /  3.2km/h 52% 0.00in /  0mm 432.0 W/m2
14:44 75.4 °F /  24.1 °C 55.4 °F /  13 °C 30.23in /  1023.6hPa Calm   1.0mph /  1.6km/h 50% 0.00in /  0mm 355.0 W/m2
14:49 75.7 °F /  24.3 °C 54.1 °F /  12.3 °C 30.23in /  1023.6hPa ENE 2.0mph /  3.2km/h 4.0mph /  6.4km/h 47% 0.00in /  0mm 366.0 W/m2
14:54 76.3 °F /  24.6 °C 55.2 °F /  12.9 °C 30.24in /  1023.9hPa SE 2.0mph /  3.2km/h 10.0mph /  16.1km/h 48% 0.00in /  0mm 269.0 W/m2
15:00 75.6 °F /  24.2 °C 57.2 °F /  14 °C 30.24in /  1023.9hPa ENE 2.0mph /  3.2km/h 7.0mph /  11.3km/h 53% 0.00in /  0mm 308.0 W/m2
15:05 75.2 °F /  24 °C 58.5 °F /  14.7 °C 30.23in /  1023.6hPa SE 0.9mph /  1.4km/h 4.0mph /  6.4km/h 56% 0.00in /  0mm 1078.0 W/m2
15:10 75.6 °F /  24.2 °C 57.7 °F /  14.3 °C 30.22in /  1023.2hPa East 6.0mph /  9.7km/h 13.0mph /  20.9km/h 54% 0.00in /  0mm 995.0 W/m2
15:15 75.7 °F /  24.3 °C 57.9 °F /  14.4 °C 30.23in /  1023.6hPa East 2.9mph /  4.7km/h 11.0mph /  17.7km/h 54% 0.00in /  0mm 230.0 W/m2
15:20 75.4 °F /  24.1 °C 57.0 °F /  13.9 °C 30.23in /  1023.6hPa ENE 6.9mph /  11.1km/h 13.0mph /  20.9km/h 53% 0.00in /  0mm 236.0 W/m2
15:25 74.3 °F /  23.5 °C 56.1 °F /  13.4 °C 30.22in /  1023.2hPa ESE 6.9mph /  11.1km/h 12.0mph /  19.3km/h 53% 0.00in /  0mm 227.0 W/m2
15:30 72.9 °F /  22.7 °C 57.7 °F /  14.3 °C 30.22in /  1023.2hPa SSE 4.9mph /  7.9km/h 13.0mph /  20.9km/h 59% 0.00in /  0mm 267.0 W/m2
15:35 71.8 °F /  22.1 °C 57.6 °F /  14.2 °C 30.22in /  1023.2hPa ESE 8.1mph /  13km/h 12.0mph /  19.3km/h 61% 0.00in /  0mm 649.0 W/m2
15:41 71.6 °F /  22 °C 57.9 °F /  14.4 °C 30.23in /  1023.6hPa NNE 2.9mph /  4.7km/h 12.0mph /  19.3km/h 62% 0.00in /  0mm 127.0 W/m2
15:46 70.2 °F /  21.2 °C 60.3 °F /  15.7 °C 30.22in /  1023.2hPa ENE 6.0mph /  9.7km/h 16.0mph /  25.7km/h 71% 0.10in /  2.54mm 116.0 W/m2
15:51 67.6 °F /  19.8 °C 58.6 °F /  14.8 °C 30.21in /  1022.9hPa SE 4.9mph /  7.9km/h 12.0mph /  19.3km/h 73% 0.16in /  4.06mm 151.0 W/m2
15:57 65.8 °F /  18.8 °C 58.8 °F /  14.9 °C 30.22in /  1023.2hPa ESE 4.9mph /  7.9km/h 9.0mph /  14.5km/h 78% 0.17in /  4.32mm 107.0 W/m2
16:02 64.8 °F /  18.2 °C 59.2 °F /  15.1 °C 30.22in /  1023.2hPa NE 2.0mph /  3.2km/h 8.0mph /  12.9km/h 82% 0.18in /  4.57mm 144.0 W/m2
16:07 64.0 °F /  17.8 °C 59.2 °F /  15.1 °C 30.23in /  1023.6hPa ESE 8.9mph /  14.3km/h 12.0mph /  19.3km/h 84% 0.39in /  9.91mm 74.0 W/m2
16:12 62.8 °F /  17.1 °C 57.9 °F /  14.4 °C 30.22in /  1023.2hPa SE 6.0mph /  9.7km/h 10.0mph /  16.1km/h 84% 0.57in /  14.48mm 165.0 W/m2
16:19 62.2 °F /  16.8 °C 57.9 °F /  14.4 °C 30.21in /  1022.9hPa ESE 4.9mph /  7.9km/h 13.0mph /  20.9km/h 86% 0.57in /  14.48mm 120.0 W/m2
16:24 62.1 °F /  16.7 °C 57.6 °F /  14.2 °C 30.21in /  1022.9hPa ESE 8.1mph /  13km/h 11.0mph /  17.7km/h 85% 0.57in /  14.48mm 105.0 W/m2
16:29 61.9 °F /  16.6 °C 56.7 °F /  13.7 °C 30.21in /  1022.9hPa ESE 4.9mph /  7.9km/h 12.0mph /  19.3km/h 83% 0.57in /  14.48mm 142.0 W/m2
16:35 61.9 °F /  16.6 °C 56.7 °F /  13.7 °C 30.20in /  1022.6hPa SSE 2.9mph /  4.7km/h 9.0mph /  14.5km/h 83% 0.57in /  14.48mm 139.0 W/m2
16:40 62.1 °F /  16.7 °C 56.8 °F /  13.8 °C 30.20in /  1022.6hPa East 4.9mph /  7.9km/h 14.0mph /  22.5km/h 83% 0.57in /  14.48mm 130.0 W/m2
16:45 62.6 °F /  17 °C 57.0 °F /  13.9 °C 30.20in /  1022.6hPa ESE 6.9mph /  11.1km/h 9.0mph /  14.5km/h 82% 0.49in /  12.45mm 118.0 W/m2
16:50 63.0 °F /  17.2 °C 57.4 °F /  14.1 °C 30.20in /  1022.6hPa ESE 4.9mph /  7.9km/h 8.0mph /  12.9km/h 82% 0.43in /  10.92mm 88.0 W/m2
16:55 63.3 °F /  17.4 °C 57.0 °F /  13.9 °C 30.20in /  1022.6hPa East 6.9mph /  11.1km/h 8.0mph /  12.9km/h 80% 0.41in /  10.41mm 54.0 W/m2
17:01 63.7 °F /  17.6 °C 57.4 °F /  14.1 °C 30.20in /  1022.6hPa ENE 4.9mph /  7.9km/h 6.0mph /  9.7km/h 80% 0.39in /  9.91mm 56.0 W/m2
17:06 63.9 °F /  17.7 °C 56.5 °F /  13.6 °C 30.19in /  1022.2hPa ESE 0.9mph /  1.4km/h 6.0mph /  9.7km/h 77% 0.24in /  6.1mm 60.0 W/m2
17:11 63.9 °F /  17.7 °C 56.5 °F /  13.6 °C 30.19in /  1022.2hPa NE 6.0mph /  9.7km/h 7.0mph /  11.3km/h 77% 0.02in /  0.51mm 62.0 W/m2
17:16 64.0 °F /  17.8 °C 56.3 °F /  13.5 °C 30.19in /  1022.2hPa Calm   6.0mph /  9.7km/h 76% 0.00in /  0mm 67.0 W/m2
17:21 64.2 °F /  17.9 °C 56.5 °F /  13.6 °C 30.19in /  1022.2hPa SE 0.9mph /  1.4km/h 4.0mph /  6.4km/h 76% 0.00in /  0mm 72.0 W/m2
17:26 64.4 °F /  18 °C 56.7 °F /  13.7 °C 30.19in /  1022.2hPa NE 2.9mph /  4.7km/h 4.0mph /  6.4km/h 76% 0.00in /  0mm 74.0 W/m2
17:31 64.4 °F /  18 °C 57.0 °F /  13.9 °C 30.19in /  1022.2hPa Calm   5.0mph /  8km/h 77% 0.00in /  0mm 72.0 W/m2
17:36 64.6 °F /  18.1 °C 57.2 °F /  14 °C 30.20in /  1022.6hPa NNE 2.0mph /  3.2km/h 4.0mph /  6.4km/h 77% 0.00in /  0mm 60.0 W/m2
17:42 64.6 °F /  18.1 °C 57.2 °F /  14 °C 30.20in /  1022.6hPa NNE 6.9mph /  11.1km/h 9.0mph /  14.5km/h 77% 0.00in /  0mm 49.0 W/m2
17:47 64.6 °F /  18.1 °C 56.8 °F /  13.8 °C 30.20in /  1022.6hPa ENE 0.9mph /  1.4km/h 6.0mph /  9.7km/h 76% 0.00in /  0mm 47.0 W/m2
17:53 64.8 °F /  18.2 °C 57.0 °F /  13.9 °C 30.20in /  1022.6hPa North 0.9mph /  1.4km/h 6.0mph /  9.7km/h 76% 0.00in /  0mm 53.0 W/m2
17:58 64.8 °F /  18.2 °C 57.0 °F /  13.9 °C 30.20in /  1022.6hPa Calm   2.0mph /  3.2km/h 76% 0.00in /  0mm 42.0 W/m2
18:04 64.8 °F /  18.2 °C 57.0 °F /  13.9 °C 30.20in /  1022.6hPa NE 0.9mph /  1.4km/h 6.0mph /  9.7km/h 76% 0.00in /  0mm 30.0 W/m2
18:09 64.9 °F /  18.3 °C 57.6 °F /  14.2 °C 30.20in /  1022.6hPa ESE 0.9mph /  1.4km/h 6.0mph /  9.7km/h 77% 0.00in /  0mm 30.0 W/m2
18:14 64.9 °F /  18.3 °C 57.2 °F /  14 °C 30.20in /  1022.6hPa NE 2.9mph /  4.7km/h 5.0mph /  8km/h 76% 0.00in /  0mm 26.0 W/m2
18:19 65.1 °F /  18.4 °C 57.4 °F /  14.1 °C 30.20in /  1022.6hPa Calm   5.0mph /  8km/h 76% 0.00in /  0mm 21.0 W/m2
18:24 65.5 °F /  18.6 °C 57.0 °F /  13.9 °C 30.20in /  1022.6hPa ENE 4.0mph /  6.4km/h 8.0mph /  12.9km/h 74% 0.00in /  0mm 19.0 W/m2
18:29 65.7 °F /  18.7 °C 57.2 °F /  14 °C 30.20in /  1022.6hPa NE 2.0mph /  3.2km/h 4.0mph /  6.4km/h 74% 0.00in /  0mm 14.0 W/m2
18:34 65.7 °F /  18.7 °C 55.6 °F /  13.1 °C 30.21in /  1022.9hPa North 6.9mph /  11.1km/h 11.0mph /  17.7km/h 70% 0.00in /  0mm 11.0 W/m2
18:40 66.0 °F /  18.9 °C 54.0 °F /  12.2 °C 30.22in /  1023.2hPa NE 4.0mph /  6.4km/h 13.0mph /  20.9km/h 65% 0.00in /  0mm 19.0 W/m2
18:46 66.6 °F /  19.2 °C 54.9 °F /  12.7 °C 30.22in /  1023.2hPa ENE 4.0mph /  6.4km/h 7.0mph /  11.3km/h 66% 0.00in /  0mm 16.0 W/m2
18:51 66.6 °F /  19.2 °C 54.5 °F /  12.5 °C 30.22in /  1023.2hPa East 2.0mph /  3.2km/h 4.0mph /  6.4km/h 65% 0.00in /  0mm 12.0 W/m2
18:56 66.6 °F /  19.2 °C 54.0 °F /  12.2 °C 30.23in /  1023.6hPa NNE 6.0mph /  9.7km/h 9.0mph /  14.5km/h 64% 0.00in /  0mm 7.0 W/m2
19:01 66.6 °F /  19.2 °C 54.5 °F /  12.5 °C 30.24in /  1023.9hPa NNE 0.9mph /  1.4km/h 9.0mph /  14.5km/h 65% 0.00in /  0mm 5.0 W/m2
19:06 66.4 °F /  19.1 °C 55.0 °F /  12.8 °C 30.24in /  1023.9hPa NE 2.9mph /  4.7km/h 5.0mph /  8km/h 67% 0.00in /  0mm 0.0 W/m2
19:11 65.8 °F /  18.8 °C 55.0 °F /  12.8 °C 30.25in /  1024.3hPa NE 4.0mph /  6.4km/h 11.0mph /  17.7km/h 68% 0.00in /  0mm 0.0 W/m2
19:16 65.5 °F /  18.6 °C 55.0 °F /  12.8 °C 30.24in /  1023.9hPa ESE 2.0mph /  3.2km/h 7.0mph /  11.3km/h 69% 0.00in /  0mm 0.0 W/m2
19:21 65.1 °F /  18.4 °C 55.0 °F /  12.8 °C 30.24in /  1023.9hPa East 4.9mph /  7.9km/h 7.0mph /  11.3km/h 70% 0.00in /  0mm 0.0 W/m2
19:26 64.8 °F /  18.2 °C 55.6 °F /  13.1 °C 30.25in /  1024.3hPa NE 2.0mph /  3.2km/h 9.0mph /  14.5km/h 72% 0.00in /  0mm 0.0 W/m2
19:31 64.6 °F /  18.1 °C 55.8 °F /  13.2 °C 30.25in /  1024.3hPa NNE 6.9mph /  11.1km/h 10.0mph /  16.1km/h 73% 0.00in /  0mm 0.0 W/m2
19:37 64.0 °F /  17.8 °C 55.9 °F /  13.3 °C 30.25in /  1024.3hPa East 2.0mph /  3.2km/h 10.0mph /  16.1km/h 75% 0.01in /  0.25mm 0.0 W/m2
19:42 63.7 °F /  17.6 °C 55.2 °F /  12.9 °C 30.24in /  1023.9hPa ESE 4.0mph /  6.4km/h 10.0mph /  16.1km/h 74% 0.01in /  0.25mm 0.0 W/m2
19:47 63.1 °F /  17.3 °C 55.4 °F /  13 °C 30.25in /  1024.3hPa ENE 2.0mph /  3.2km/h 9.0mph /  14.5km/h 76% 0.01in /  0.25mm 0.0 W/m2
19:52 63.0 °F /  17.2 °C 54.9 °F /  12.7 °C 30.27in /  1024.9hPa ESE 2.0mph /  3.2km/h 4.0mph /  6.4km/h 75% 0.01in /  0.25mm 0.0 W/m2
19:57 62.8 °F /  17.1 °C 55.0 °F /  12.8 °C 30.29in /  1025.6hPa NNE 0.9mph /  1.4km/h 5.0mph /  8km/h 76% 0.02in /  0.51mm 0.0 W/m2
20:02 62.6 °F /  17 °C 56.3 °F /  13.5 °C 30.30in /  1026hPa Calm   1.0mph /  1.6km/h 80% 0.08in /  2.03mm 0.0 W/m2
20:07 62.1 °F /  16.7 °C 57.2 °F /  14 °C 30.31in /  1026.3hPa ESE 2.9mph /  4.7km/h 5.0mph /  8km/h 84% 0.17in /  4.32mm 0.0 W/m2
20:12 61.5 °F /  16.4 °C 57.0 °F /  13.9 °C 30.31in /  1026.3hPa ESE 0.9mph /  1.4km/h 5.0mph /  8km/h 85% 0.28in /  7.11mm 0.0 W/m2
20:18 60.6 °F /  15.9 °C 56.1 °F /  13.4 °C 30.31in /  1026.3hPa ESE 4.9mph /  7.9km/h 8.0mph /  12.9km/h 85% 0.30in /  7.62mm 0.0 W/m2
20:23 60.3 °F /  15.7 °C 56.1 °F /  13.4 °C 30.31in /  1026.3hPa SE 6.0mph /  9.7km/h 6.0mph /  9.7km/h 86% 0.30in /  7.62mm 0.0 W/m2
20:28 59.7 °F /  15.4 °C 55.6 °F /  13.1 °C 30.31in /  1026.3hPa SSE 6.9mph /  11.1km/h 7.0mph /  11.3km/h 86% 0.30in /  7.62mm 0.0 W/m2
20:33 59.5 °F /  15.3 °C 55.6 °F /  13.1 °C 30.32in /  1026.6hPa Calm   5.0mph /  8km/h 87% 0.31in /  7.87mm 0.0 W/m2
20:38 59.5 °F /  15.3 °C 55.9 °F /  13.3 °C 30.33in /  1027hPa Calm   2.0mph /  3.2km/h 88% 0.31in /  7.87mm 0.0 W/m2
20:43 59.5 °F /  15.3 °C 55.9 °F /  13.3 °C 30.35in /  1027.7hPa WSW 2.0mph /  3.2km/h 7.0mph /  11.3km/h 88% 0.31in /  7.87mm 0.0 W/m2
20:48 59.5 °F /  15.3 °C 56.3 °F /  13.5 °C 30.35in /  1027.7hPa SW 2.0mph /  3.2km/h 3.0mph /  4.8km/h 89% 0.31in /  7.87mm 0.0 W/m2
20:53 59.7 °F /  15.4 °C 56.5 °F /  13.6 °C 30.36in /  1028hPa SE 2.9mph /  4.7km/h 5.0mph /  8km/h 89% 0.31in /  7.87mm 0.0 W/m2
20:58 59.7 °F /  15.4 °C 56.1 °F /  13.4 °C 30.36in /  1028hPa ESE 4.0mph /  6.4km/h 7.0mph /  11.3km/h 88% 0.31in /  7.87mm 0.0 W/m2
21:04 59.7 °F /  15.4 °C 56.5 °F /  13.6 °C 30.35in /  1027.7hPa ESE 2.9mph /  4.7km/h 6.0mph /  9.7km/h 89% 0.23in /  5.84mm 0.0 W/m2
21:09 59.5 °F /  15.3 °C 55.9 °F /  13.3 °C 30.36in /  1028hPa SSE 2.9mph /  4.7km/h 7.0mph /  11.3km/h 88% 0.12in /  3.05mm 0.0 W/m2
21:14 59.4 °F /  15.2 °C 56.1 °F /  13.4 °C 30.35in /  1027.7hPa SSE 2.9mph /  4.7km/h 7.0mph /  11.3km/h 89% 0.07in /  1.78mm 0.0 W/m2
21:19 59.2 °F /  15.1 °C 55.9 °F /  13.3 °C 30.36in /  1028hPa SE 0.9mph /  1.4km/h 6.0mph /  9.7km/h 89% 0.06in /  1.52mm 0.0 W/m2
21:24 59.2 °F /  15.1 °C 55.9 °F /  13.3 °C 30.36in /  1028hPa SE 0.9mph /  1.4km/h 4.0mph /  6.4km/h 89% 0.06in /  1.52mm 0.0 W/m2
21:29 59.2 °F /  15.1 °C 56.3 °F /  13.5 °C 30.35in /  1027.7hPa ESE 4.0mph /  6.4km/h 4.0mph /  6.4km/h 90% 0.07in /  1.78mm 0.0 W/m2
21:34 59.2 °F /  15.1 °C 56.3 °F /  13.5 °C 30.35in /  1027.7hPa ESE 0.9mph /  1.4km/h 4.0mph /  6.4km/h 90% 0.08in /  2.03mm 0.0 W/m2
21:39 59.2 °F /  15.1 °C 56.5 °F /  13.6 °C 30.35in /  1027.7hPa Calm   3.0mph /  4.8km/h 91% 0.09in /  2.29mm 0.0 W/m2
21:44 59.2 °F /  15.1 °C 56.5 °F /  13.6 °C 30.35in /  1027.7hPa Calm   2.0mph /  3.2km/h 91% 0.12in /  3.05mm 0.0 W/m2
21:49 59.0 °F /  15 °C 56.3 °F /  13.5 °C 30.36in /  1028hPa Calm   1.0mph /  1.6km/h 91% 0.12in /  3.05mm 0.0 W/m2
21:55 58.8 °F /  14.9 °C 55.9 °F /  13.3 °C 30.36in /  1028hPa Calm   1.0mph /  1.6km/h 90% 0.12in /  3.05mm 0.0 W/m2
22:00 58.8 °F /  14.9 °C 56.1 °F /  13.4 °C 30.36in /  1028hPa ESE 2.0mph /  3.2km/h 4.0mph /  6.4km/h 91% 0.10in /  2.54mm 0.0 W/m2
22:05 58.8 °F /  14.9 °C 55.9 °F /  13.3 °C 30.36in /  1028hPa ESE 2.0mph /  3.2km/h 9.0mph /  14.5km/h 90% 0.09in /  2.29mm 0.0 W/m2
22:10 58.6 °F /  14.8 °C 55.8 °F /  13.2 °C 30.36in /  1028hPa Calm   2.0mph /  3.2km/h 90% 0.09in /  2.29mm 0.0 W/m2
22:15 58.6 °F /  14.8 °C 55.8 °F /  13.2 °C 30.37in /  1028.3hPa Calm     90% 0.08in /  2.03mm 0.0 W/m2
22:20 58.8 °F /  14.9 °C 56.1 °F /  13.4 °C 30.37in /  1028.3hPa Calm     91% 0.09in /  2.29mm 0.0 W/m2
22:25 58.8 °F /  14.9 °C 56.1 °F /  13.4 °C 30.37in /  1028.3hPa Calm   1.0mph /  1.6km/h 91% 0.08in /  2.03mm 0.0 W/m2
22:30 58.8 °F /  14.9 °C 56.1 °F /  13.4 °C 30.37in /  1028.3hPa ENE 2.0mph /  3.2km/h 4.0mph /  6.4km/h 91% 0.06in /  1.52mm 0.0 W/m2
22:36 58.8 °F /  14.9 °C 56.1 °F /  13.4 °C 30.37in /  1028.3hPa ENE 4.0mph /  6.4km/h 6.0mph /  9.7km/h 91% 0.06in /  1.52mm 0.0 W/m2
22:41 58.6 °F /  14.8 °C 55.9 °F /  13.3 °C 30.37in /  1028.3hPa ENE 2.0mph /  3.2km/h 4.0mph /  6.4km/h 91% 0.05in /  1.27mm 0.0 W/m2
22:46 58.6 °F /  14.8 °C 55.9 °F /  13.3 °C 30.37in /  1028.3hPa Calm   5.0mph /  8km/h 91% 0.03in /  0.76mm 0.0 W/m2
22:51 58.6 °F /  14.8 °C 55.9 °F /  13.3 °C 30.37in /  1028.3hPa Calm   6.0mph /  9.7km/h 91% 0.03in /  0.76mm 0.0 W/m2
22:56 58.5 °F /  14.7 °C 55.8 °F /  13.2 °C 30.37in /  1028.3hPa East 2.0mph /  3.2km/h 3.0mph /  4.8km/h 91% 0.03in /  0.76mm 0.0 W/m2
23:01 58.5 °F /  14.7 °C 55.8 °F /  13.2 °C 30.37in /  1028.3hPa Calm   2.0mph /  3.2km/h 91% 0.03in /  0.76mm 0.0 W/m2
23:06 58.5 °F /  14.7 °C 55.8 °F /  13.2 °C 30.37in /  1028.3hPa SE 0.9mph /  1.4km/h 3.0mph /  4.8km/h 91% 0.03in /  0.76mm 0.0 W/m2
23:11 58.5 °F /  14.7 °C 55.8 °F /  13.2 °C 30.37in /  1028.3hPa East 0.9mph /  1.4km/h 3.0mph /  4.8km/h 91% 0.03in /  0.76mm 0.0 W/m2
23:16 58.5 °F /  14.7 °C 55.8 °F /  13.2 °C 30.37in /  1028.3hPa Calm   6.0mph /  9.7km/h 91% 0.04in /  1.02mm 0.0 W/m2
23:21 58.5 °F /  14.7 °C 55.8 °F /  13.2 °C 30.36in /  1028hPa NNE 2.0mph /  3.2km/h 5.0mph /  8km/h 91% 0.03in /  0.76mm 0.0 W/m2
23:26 58.3 °F /  14.6 °C 55.6 °F /  13.1 °C 30.36in /  1028hPa ENE 2.0mph /  3.2km/h 5.0mph /  8km/h 91% 0.03in /  0.76mm 0.0 W/m2
23:32 58.3 °F /  14.6 °C 55.4 °F /  13 °C 30.36in /  1028hPa ENE 2.0mph /  3.2km/h 10.0mph /  16.1km/h 90% 0.02in /  0.51mm 0.0 W/m2
23:37 58.1 °F /  14.5 °C 55.4 °F /  13 °C 30.35in /  1027.7hPa North 4.0mph /  6.4km/h 7.0mph /  11.3km/h 91% 0.02in /  0.51mm 0.0 W/m2
23:42 58.1 °F /  14.5 °C 55.2 °F /  12.9 °C 30.35in /  1027.7hPa NE 6.9mph /  11.1km/h 8.0mph /  12.9km/h 90% 0.01in /  0.25mm 0.0 W/m2
23:47 58.1 °F /  14.5 °C 55.2 °F /  12.9 °C 30.35in /  1027.7hPa ENE 2.9mph /  4.7km/h 6.0mph /  9.7km/h 90% 0.01in /  0.25mm 0.0 W/m2
23:52 57.9 °F /  14.4 °C 55.0 °F /  12.8 °C 30.36in /  1028hPa NE 2.9mph /  4.7km/h 9.0mph /  14.5km/h 90% 0.01in /  0.25mm 0.0 W/m2
23:57 57.9 °F /  14.4 °C 55.0 °F /  12.8 °C 30.36in /  1028hPa NE 2.0mph /  3.2km/h 10.0mph /  16.1km/h 90% 0.01in /  0.25mm 0.0 W/m2
Olympia, Windhoek, Namibia
Compliments of Weather Underground - 3.25 mb